Time;durP1;ratioP1;P1;durP2;ratioP2;P2;SDS_P1;SDS_P2;PMS_P1;PMS_P2;Temp;Humidity;BMP_temperature;BMP_pressure;BME280_temperature;BME280_humidity;BME280_pressure;Samples;Min_cycle;Max_cycle;Signal;HPM_P1;HPM_P2
2021/10/14 00:00:11;;;;;;;;;;;14.70;26.80;;;;;;4373862;32;20055;-37
2021/10/14 00:02:37;;;;;;;;;;;14.70;26.80;;;;;;4373988;32;19958;-38
2021/10/14 00:05:04;;;;;;;;;;;14.70;26.70;;;;;;4373933;32;20058;-37
2021/10/14 00:07:30;;;;;;;;;;;14.60;26.70;;;;;;4374052;32;19958;-37
2021/10/14 00:09:56;;;;;;;;;;;14.60;26.60;;;;;;4373704;32;19954;-36
2021/10/14 00:12:23;;;;;;;;;;;14.60;26.70;;;;;;4373801;32;20655;-36
2021/10/14 00:14:49;;;;;;;;;;;14.60;26.70;;;;;;4373639;32;19962;-36
2021/10/14 00:17:15;;;;;;;;;;;14.50;26.70;;;;;;4373559;32;19985;-41
2021/10/14 00:19:41;;;;;;;;;;;14.50;26.90;;;;;;4373249;32;19966;-37
2021/10/14 00:22:07;;;;;;;;;;;14.40;27.00;;;;;;4373752;32;19962;-37
2021/10/14 00:24:34;;;;;;;;;;;14.40;27.00;;;;;;4373461;32;20446;-38
2021/10/14 00:27:00;;;;;;;;;;;14.30;27.10;;;;;;4373828;32;19958;-37
2021/10/14 00:29:26;;;;;;;;;;;14.30;27.10;;;;;;4373596;32;19969;-38
2021/10/14 00:31:52;;;;;;;;;;;14.30;27.10;;;;;;4359962;32;20451;-38
2021/10/14 00:34:18;;;;;;;;;;;14.30;27.30;;;;;;4373906;32;19994;-37
2021/10/14 00:36:44;;;;;;;;;;;14.20;27.30;;;;;;4359956;32;19959;-37
2021/10/14 00:39:11;;;;;;;;;;;14.20;27.60;;;;;;4373416;32;19997;-37
2021/10/14 00:41:39;;;;;;;;;;;14.10;27.70;;;;;;4373477;32;19986;-37
2021/10/14 00:44:05;;;;;;;;;;;14.10;27.70;;;;;;4326131;33;19975;-37
2021/10/14 00:46:31;;;;;;;;;;;14.10;27.80;;;;;;4326835;33;19990;-37
2021/10/14 00:48:57;;;;;;;;;;;14.10;27.90;;;;;;4326178;33;20006;-37
2021/10/14 00:51:23;;;;;;;;;;;14.00;27.90;;;;;;4326614;33;20469;-37
2021/10/14 00:53:50;;;;;;;;;;;14.00;28.00;;;;;;4326797;33;20050;-38
2021/10/14 00:56:16;;;;;;;;;;;14.00;28.20;;;;;;4326213;33;19998;-38
2021/10/14 00:58:43;;;;;;;;;;;14.00;28.20;;;;;;4326075;33;19985;-38
2021/10/14 01:01:09;;;;;;;;;;;13.90;28.20;;;;;;4326533;33;19967;-37
2021/10/14 01:03:35;;;;;;;;;;;13.90;28.20;;;;;;4326513;33;20448;-38
2021/10/14 01:06:01;;;;;;;;;;;13.90;28.20;;;;;;4326744;33;19986;-37
2021/10/14 01:08:28;;;;;;;;;;;13.90;28.20;;;;;;4326076;33;19974;-38
2021/10/14 01:10:54;;;;;;;;;;;13.80;28.10;;;;;;4328735;33;20041;-37
2021/10/14 01:13:20;;;;;;;;;;;13.80;28.10;;;;;;4329637;33;19971;-38
2021/10/14 01:15:46;;;;;;;;;;;13.80;28.10;;;;;;4354292;32;19975;-38
2021/10/14 01:18:13;;;;;;;;;;;13.70;28.00;;;;;;4361415;32;19954;-37
2021/10/14 01:20:39;;;;;;;;;;;13.70;28.00;;;;;;4361094;32;19970;-39
2021/10/14 01:23:06;;;;;;;;;;;13.70;27.90;;;;;;4361867;32;19971;-38
2021/10/14 01:25:32;;;;;;;;;;;13.70;27.90;;;;;;4361581;32;19963;-38
2021/10/14 01:27:59;;;;;;;;;;;13.60;27.90;;;;;;4361125;32;19954;-37
2021/10/14 01:30:25;;;;;;;;;;;13.70;27.80;;;;;;4347486;32;20039;-37
2021/10/14 01:32:52;;;;;;;;;;;13.60;27.80;;;;;;4347567;32;19970;-38
2021/10/14 01:35:18;;;;;;;;;;;13.60;27.90;;;;;;4361208;32;20444;-38
2021/10/14 01:37:45;;;;;;;;;;;13.60;27.90;;;;;;4361089;32;19959;-38
2021/10/14 01:40:12;;;;;;;;;;;13.60;28.00;;;;;;4361261;32;19974;-38
2021/10/14 01:42:38;;;;;;;;;;;13.50;28.00;;;;;;4361105;32;20448;-38
2021/10/14 01:45:05;;;;;;;;;;;13.50;28.10;;;;;;4361013;32;19990;-38
2021/10/14 01:47:32;;;;;;;;;;;13.50;28.10;;;;;;4375267;32;20065;-38
2021/10/14 01:49:58;;;;;;;;;;;13.50;28.10;;;;;;4375762;32;20500;-38
2021/10/14 01:52:24;;;;;;;;;;;13.50;28.00;;;;;;4375567;32;19977;-38
2021/10/14 01:54:50;;;;;;;;;;;13.40;27.90;;;;;;4375393;32;20444;-37
2021/10/14 01:57:16;;;;;;;;;;;13.40;27.90;;;;;;4361854;32;19981;-37
2021/10/14 01:59:43;;;;;;;;;;;13.40;27.80;;;;;;4375851;32;19982;-37
2021/10/14 02:02:09;;;;;;;;;;;13.40;27.80;;;;;;4361811;32;20415;-38
2021/10/14 02:04:35;;;;;;;;;;;13.40;27.70;;;;;;4375363;32;19969;-37
2021/10/14 02:07:01;;;;;;;;;;;13.40;27.70;;;;;;4375669;32;19978;-38
2021/10/14 02:09:28;;;;;;;;;;;13.40;27.60;;;;;;4375792;32;19974;-36
2021/10/14 02:11:54;;;;;;;;;;;13.40;27.50;;;;;;4375245;32;20053;-38
2021/10/14 02:14:20;;;;;;;;;;;13.40;27.40;;;;;;4375832;32;19964;-38
2021/10/14 02:16:46;;;;;;;;;;;13.30;27.40;;;;;;4375815;32;19966;-37
2021/10/14 02:19:12;;;;;;;;;;;13.40;27.40;;;;;;4375359;32;19958;-38
2021/10/14 02:21:39;;;;;;;;;;;13.30;27.40;;;;;;4374883;32;19970;-37
2021/10/14 02:24:05;;;;;;;;;;;13.30;27.30;;;;;;4375435;32;19982;-38
2021/10/14 02:26:31;;;;;;;;;;;13.30;27.30;;;;;;4375045;32;20005;-38
2021/10/14 02:28:57;;;;;;;;;;;13.30;27.40;;;;;;4375060;32;19993;-38
2021/10/14 02:31:23;;;;;;;;;;;13.20;27.40;;;;;;4374980;32;19970;-38
2021/10/14 02:33:50;;;;;;;;;;;13.20;27.30;;;;;;4375202;32;19963;-37
2021/10/14 02:36:16;;;;;;;;;;;13.20;27.30;;;;;;4375229;32;19958;-38
2021/10/14 02:38:42;;;;;;;;;;;13.20;27.30;;;;;;4375533;32;19978;-38
2021/10/14 02:41:08;;;;;;;;;;;13.20;27.30;;;;;;4375565;32;19984;-37
2021/10/14 02:43:34;;;;;;;;;;;13.10;27.30;;;;;;4375218;32;20407;-37
2021/10/14 02:46:00;;;;;;;;;;;13.10;27.20;;;;;;4368935;32;20423;-38
2021/10/14 02:48:27;;;;;;;;;;;13.10;27.20;;;;;;4360049;32;20095;-38
2021/10/14 02:50:53;;;;;;;;;;;13.00;27.10;;;;;;4360263;32;20042;-37
2021/10/14 02:53:19;;;;;;;;;;;13.00;27.10;;;;;;4359768;32;20403;-37
2021/10/14 02:55:45;;;;;;;;;;;13.00;27.00;;;;;;4359848;32;20043;-38
2021/10/14 02:58:11;;;;;;;;;;;13.00;27.00;;;;;;4360071;32;20411;-37
2021/10/14 03:00:38;;;;;;;;;;;13.00;27.00;;;;;;4360263;32;20399;-37
2021/10/14 03:03:04;;;;;;;;;;;12.90;26.90;;;;;;4359721;32;19962;-37
2021/10/14 03:05:30;;;;;;;;;;;12.90;26.90;;;;;;4359384;32;20063;-37
2021/10/14 03:07:56;;;;;;;;;;;12.90;26.90;;;;;;4360008;32;19958;-38
2021/10/14 03:10:22;;;;;;;;;;;12.90;26.90;;;;;;4359476;32;19974;-38
2021/10/14 03:12:49;;;;;;;;;;;12.90;26.90;;;;;;4359672;32;20111;-39
2021/10/14 03:15:15;;;;;;;;;;;12.90;26.90;;;;;;4359380;32;19967;-36
2021/10/14 03:17:41;;;;;;;;;;;12.90;26.90;;;;;;4359855;32;19965;-37
2021/10/14 03:20:08;;;;;;;;;;;13.00;26.90;;;;;;4359211;32;19971;-38
2021/10/14 03:22:34;;;;;;;;;;;13.00;26.90;;;;;;4359349;32;20019;-37
2021/10/14 03:25:00;;;;;;;;;;;13.00;27.00;;;;;;4359825;32;19955;-38
2021/10/14 03:27:26;;;;;;;;;;;12.90;27.00;;;;;;4359339;32;20464;-37
2021/10/14 03:29:53;;;;;;;;;;;12.90;27.00;;;;;;4359093;32;19978;-38
2021/10/14 03:32:19;;;;;;;;;;;13.00;27.10;;;;;;4359169;32;19989;-36
2021/10/14 03:34:45;;;;;;;;;;;13.00;27.10;;;;;;4359386;32;19963;-38
2021/10/14 03:37:11;;;;;;;;;;;13.00;27.10;;;;;;4359901;32;19966;-38
2021/10/14 03:39:37;;;;;;;;;;;13.10;27.10;;;;;;4359254;32;19969;-37
2021/10/14 03:42:03;;;;;;;;;;;13.20;27.10;;;;;;4359047;32;19978;-38
2021/10/14 03:44:30;;;;;;;;;;;13.20;27.00;;;;;;4359099;32;19962;-38
2021/10/14 03:46:56;;;;;;;;;;;13.30;26.90;;;;;;4370767;32;19954;-38
2021/10/14 03:49:22;;;;;;;;;;;13.40;26.90;;;;;;4373943;32;20046;-38
2021/10/14 03:51:48;;;;;;;;;;;13.40;26.90;;;;;;4360365;32;19962;-37
2021/10/14 03:54:14;;;;;;;;;;;13.50;26.80;;;;;;4374450;32;20544;-39
2021/10/14 03:56:40;;;;;;;;;;;13.60;26.80;;;;;;4374029;32;19962;-38
2021/10/14 03:59:07;;;;;;;;;;;13.70;26.80;;;;;;4373864;32;19978;-37
2021/10/14 04:01:33;;;;;;;;;;;13.80;26.80;;;;;;4374375;32;19974;-38
2021/10/14 04:03:59;;;;;;;;;;;13.80;26.70;;;;;;4373535;32;20047;-38
2021/10/14 04:06:25;;;;;;;;;;;13.80;26.60;;;;;;4373365;32;19986;-38
2021/10/14 04:08:51;;;;;;;;;;;13.90;26.50;;;;;;4373821;32;19979;-37
2021/10/14 04:11:17;;;;;;;;;;;13.90;26.40;;;;;;4373817;32;19966;-38
2021/10/14 04:13:44;;;;;;;;;;;14.00;26.30;;;;;;4373916;32;20001;-39
2021/10/14 04:16:10;;;;;;;;;;;14.10;26.30;;;;;;4359942;32;19969;-38
2021/10/14 04:18:36;;;;;;;;;;;14.10;26.40;;;;;;4373574;32;20445;-38
2021/10/14 04:21:03;;;;;;;;;;;14.20;26.00;;;;;;4373195;32;20082;-38
2021/10/14 04:23:30;;;;;;;;;;;14.20;26.00;;;;;;4374191;32;20351;-38
2021/10/14 04:25:56;;;;;;;;;;;14.30;25.80;;;;;;4373699;32;19978;-38
2021/10/14 04:28:22;;;;;;;;;;;14.30;25.80;;;;;;4373895;32;19972;-38
2021/10/14 04:30:48;;;;;;;;;;;14.40;25.80;;;;;;4373848;32;20039;-38
2021/10/14 04:33:15;;;;;;;;;;;14.50;25.70;;;;;;4373872;32;19962;-38
2021/10/14 04:35:41;;;;;;;;;;;14.50;25.40;;;;;;4373477;32;19972;-39
2021/10/14 04:38:07;;;;;;;;;;;14.60;25.40;;;;;;4373578;32;19963;-39
2021/10/14 04:40:33;;;;;;;;;;;14.70;25.50;;;;;;4373561;32;20457;-39
2021/10/14 04:43:00;;;;;;;;;;;14.80;25.40;;;;;;4373590;32;20070;-38
2021/10/14 04:45:26;;;;;;;;;;;14.90;25.00;;;;;;4370189;32;20471;-38
2021/10/14 04:47:52;;;;;;;;;;;15.00;24.90;;;;;;4358013;32;20423;-38
2021/10/14 04:50:18;;;;;;;;;;;15.00;24.90;;;;;;4358611;32;19974;-38
2021/10/14 04:52:44;;;;;;;;;;;15.10;24.80;;;;;;4358377;32;20054;-38
2021/10/14 04:55:11;;;;;;;;;;;15.20;24.70;;;;;;4358717;32;19973;-38
2021/10/14 04:57:37;;;;;;;;;;;15.20;24.60;;;;;;4358468;32;20030;-38
2021/10/14 05:00:04;;;;;;;;;;;15.30;24.60;;;;;;4358367;32;19962;-38
2021/10/14 05:02:30;;;;;;;;;;;15.30;24.40;;;;;;4358107;32;19970;-37
2021/10/14 05:04:57;;;;;;;;;;;15.30;24.10;;;;;;4358264;32;19963;-37
2021/10/14 05:07:23;;;;;;;;;;;15.30;24.20;;;;;;4357957;32;20427;-38
2021/10/14 05:09:49;;;;;;;;;;;15.40;24.10;;;;;;4358930;32;19966;-38
2021/10/14 05:12:15;;;;;;;;;;;15.30;24.00;;;;;;4358752;32;19979;-38
2021/10/14 05:14:41;;;;;;;;;;;15.40;24.00;;;;;;4357920;32;20461;-38
2021/10/14 05:17:07;;;;;;;;;;;15.40;24.00;;;;;;4358653;32;20038;-38
2021/10/14 05:19:34;;;;;;;;;;;15.50;24.00;;;;;;4358194;32;20399;-38
2021/10/14 05:22:00;;;;;;;;;;;15.50;23.90;;;;;;4358546;32;19967;-38
2021/10/14 05:24:26;;;;;;;;;;;15.60;23.90;;;;;;4358277;32;19970;-38
2021/10/14 05:26:52;;;;;;;;;;;15.70;23.80;;;;;;4358203;32;19963;-40
2021/10/14 05:29:18;;;;;;;;;;;15.80;23.70;;;;;;4358538;32;19958;-38
2021/10/14 05:31:44;;;;;;;;;;;16.00;23.50;;;;;;4357921;32;19993;-38
2021/10/14 05:34:11;;;;;;;;;;;16.00;23.50;;;;;;4358086;32;20117;-39
2021/10/14 05:36:37;;;;;;;;;;;16.10;23.50;;;;;;4358127;32;19986;-39
2021/10/14 05:39:03;;;;;;;;;;;16.30;23.60;;;;;;4357851;32;20059;-38
2021/10/14 05:41:29;;;;;;;;;;;16.40;23.50;;;;;;4357983;32;19970;-38
2021/10/14 05:43:56;;;;;;;;;;;16.60;23.70;;;;;;4357879;32;20415;-38
2021/10/14 05:46:22;;;;;;;;;;;16.70;23.50;;;;;;4366555;32;20105;-38
2021/10/14 05:48:48;;;;;;;;;;;16.90;23.50;;;;;;4372821;32;20427;-39
2021/10/14 05:51:15;;;;;;;;;;;17.00;23.50;;;;;;4372934;32;20037;-39
2021/10/14 05:53:41;;;;;;;;;;;17.10;23.50;;;;;;4372628;32;20055;-38
2021/10/14 05:56:07;;;;;;;;;;;17.20;23.40;;;;;;4373049;32;20014;-38
2021/10/14 05:58:33;;;;;;;;;;;17.40;23.30;;;;;;4375715;32;19954;-39
2021/10/14 06:00:59;;;;;;;;;;;17.50;23.40;;;;;;4374982;32;19977;-38
2021/10/14 06:03:26;;;;;;;;;;;17.50;23.40;;;;;;4375370;32;20027;-39
2021/10/14 06:05:52;;;;;;;;;;;17.60;23.40;;;;;;4375142;32;19978;-39
2021/10/14 06:08:18;;;;;;;;;;;17.60;23.40;;;;;;4361617;32;19978;-38
2021/10/14 06:10:44;;;;;;;;;;;17.50;23.40;;;;;;4375501;32;19958;-45
2021/10/14 06:13:10;;;;;;;;;;;17.50;23.40;;;;;;4375229;32;19981;-41
2021/10/14 06:15:37;;;;;;;;;;;17.40;23.50;;;;;;4361557;32;20058;-42
2021/10/14 06:18:03;;;;;;;;;;;17.60;23.60;;;;;;4375492;32;19996;-39
2021/10/14 06:20:29;;;;;;;;;;;17.90;23.70;;;;;;4375050;32;19974;-39
2021/10/14 06:22:55;;;;;;;;;;;18.20;23.80;;;;;;4361433;32;19962;-37
2021/10/14 06:25:21;;;;;;;;;;;18.70;23.60;;;;;;4375756;32;19985;-38
2021/10/14 06:27:47;;;;;;;;;;;19.20;23.50;;;;;;4374972;32;20392;-37
2021/10/14 06:30:14;;;;;;;;;;;19.80;23.20;;;;;;4375336;32;20025;-41
2021/10/14 06:32:40;;;;;;;;;;;20.40;22.70;;;;;;4375215;32;19962;-36
2021/10/14 06:35:07;;;;;;;;;;;21.10;22.40;;;;;;4374679;32;20053;-37
2021/10/14 06:37:33;;;;;;;;;;;21.80;21.50;;;;;;4374742;32;20408;-37
2021/10/14 06:39:59;;;;;;;;;;;22.50;20.90;;;;;;4374662;32;19973;-38
2021/10/14 06:42:25;;;;;;;;;;;23.10;20.60;;;;;;4374788;32;20042;-38
2021/10/14 06:44:51;;;;;;;;;;;23.70;20.40;;;;;;4374948;32;19993;-37
2021/10/14 06:47:17;;;;;;;;;;;24.20;19.90;;;;;;4360537;32;20386;-37
2021/10/14 06:49:44;;;;;;;;;;;24.60;19.70;;;;;;4359739;32;19974;-38
2021/10/14 06:52:10;;;;;;;;;;;25.00;20.00;;;;;;4359630;32;20474;-37
2021/10/14 06:54:38;;;;;;;;;;;25.30;19.30;;;;;;4359644;32;20465;-36
2021/10/14 06:57:05;;;;;;;;;;;25.60;19.20;;;;;;4359521;32;20475;-39
2021/10/14 06:59:31;;;;;;;;;;;25.90;19.10;;;;;;4359613;32;19962;-36
2021/10/14 07:01:57;;;;;;;;;;;26.20;19.00;;;;;;4359848;32;19982;-36
2021/10/14 07:04:24;;;;;;;;;;;26.40;18.80;;;;;;4360098;32;20047;-36
2021/10/14 07:06:50;;;;;;;;;;;26.70;18.60;;;;;;4359316;32;20057;-37
2021/10/14 07:09:16;;;;;;;;;;;27.00;18.50;;;;;;4359287;32;20009;-36
2021/10/14 07:11:50;;;;;;;;;;;27.20;18.10;;;;;;4359281;32;19958;-37
2021/10/14 07:14:17;;;;;;;;;;;27.40;18.10;;;;;;4359504;32;19997;-37
2021/10/14 07:16:43;;;;;;;;;;;27.50;17.80;;;;;;4359309;32;20060;-38
2021/10/14 07:19:09;;;;;;;;;;;27.70;17.90;;;;;;4359150;32;19996;-37
2021/10/14 07:21:35;;;;;;;;;;;27.80;17.90;;;;;;4359303;32;20000;-37
2021/10/14 07:24:01;;;;;;;;;;;28.00;17.80;;;;;;4359567;32;19962;-40
2021/10/14 07:26:27;;;;;;;;;;;28.10;17.70;;;;;;4359228;32;19970;-39
2021/10/14 07:28:54;;;;;;;;;;;28.10;17.60;;;;;;4359591;32;19968;-38
2021/10/14 07:31:20;;;;;;;;;;;28.10;17.70;;;;;;4359133;32;20446;-38
2021/10/14 07:33:47;;;;;;;;;;;28.10;17.60;;;;;;4345630;32;19977;-38
2021/10/14 07:36:13;;;;;;;;;;;28.20;17.60;;;;;;4359017;32;20443;-38
2021/10/14 07:38:44;;;;;;;;;;;28.20;17.50;;;;;;4359453;32;19958;-38
2021/10/14 07:41:16;;;;;;;;;;;28.20;17.40;;;;;;4359105;32;19970;-37
2021/10/14 07:43:42;;;;;;;;;;;28.30;17.40;;;;;;4359030;32;20049;-37
2021/10/14 07:46:09;;;;;;;;;;;28.30;17.20;;;;;;4365833;32;19980;-37
2021/10/14 07:48:35;;;;;;;;;;;28.20;17.10;;;;;;4373784;32;19962;-38
2021/10/14 07:51:02;;;;;;;;;;;28.20;17.10;;;;;;4373939;32;19958;-38
2021/10/14 07:53:31;;;;;;;;;;;28.10;17.20;;;;;;4374000;32;19962;-38
2021/10/14 07:55:58;;;;;;;;;;;28.00;17.20;;;;;;4374011;32;20001;-36
2021/10/14 07:58:24;;;;;;;;;;;27.90;17.30;;;;;;4373655;32;20038;-38
2021/10/14 08:00:50;;;;;;;;;;;27.70;17.30;;;;;;4359506;32;20510;-37
2021/10/14 08:03:17;;;;;;;;;;;27.50;17.30;;;;;;4373509;32;20030;-36
2021/10/14 08:05:43;;;;;;;;;;;27.30;17.40;;;;;;4373572;32;20351;-37
2021/10/14 08:08:10;;;;;;;;;;;27.10;17.60;;;;;;4373744;32;20066;-38
2021/10/14 08:10:36;;;;;;;;;;;26.90;17.80;;;;;;4373768;32;19981;-38
2021/10/14 08:13:02;;;;;;;;;;;26.70;17.80;;;;;;4373597;32;19992;-37
2021/10/14 08:15:29;;;;;;;;;;;26.50;17.80;;;;;;4373833;32;20043;-37
2021/10/14 08:17:55;;;;;;;;;;;26.30;18.00;;;;;;4373667;32;20379;-37
2021/10/14 08:20:21;;;;;;;;;;;26.20;18.20;;;;;;4372563;32;20037;-38
2021/10/14 08:22:49;;;;;;;;;;;26.10;18.30;;;;;;4373647;32;19962;-37
2021/10/14 08:25:15;;;;;;;;;;;26.10;18.50;;;;;;4373481;32;19977;-38
2021/10/14 08:27:42;;;;;;;;;;;26.10;18.50;;;;;;4359613;32;19969;-37
2021/10/14 08:30:09;;;;;;;;;;;26.10;18.40;;;;;;4373669;32;19965;-37
2021/10/14 08:32:35;;;;;;;;;;;26.00;18.40;;;;;;4359852;32;20106;-36
2021/10/14 08:35:01;;;;;;;;;;;25.90;18.60;;;;;;4373600;32;20077;-38
2021/10/14 08:37:29;;;;;;;;;;;25.90;18.60;;;;;;4373477;32;19962;-37
2021/10/14 08:39:55;;;;;;;;;;;25.90;18.70;;;;;;4373116;32;20051;-36
2021/10/14 08:42:22;;;;;;;;;;;25.80;18.60;;;;;;4325981;33;20068;-38
2021/10/14 08:44:48;;;;;;;;;;;25.70;18.60;;;;;;4326558;33;19958;-37
2021/10/14 08:47:15;;;;;;;;;;;25.60;18.60;;;;;;4312895;33;19967;-37
2021/10/14 08:49:45;;;;;;;;;;;25.60;18.60;;;;;;4311736;33;19967;-37
2021/10/14 08:52:12;;;;;;;;;;;25.50;18.50;;;;;;4312029;33;19986;-36
2021/10/14 08:54:40;;;;;;;;;;;25.40;19.10;;;;;;4311560;33;19968;-36
2021/10/14 08:57:06;;;;;;;;;;;25.30;18.50;;;;;;4311668;33;20089;-38
2021/10/14 08:59:32;;;;;;;;;;;25.10;18.70;;;;;;4311637;33;19979;-37
2021/10/14 09:02:07;;;;;;;;;;;25.00;18.80;;;;;;4311915;33;19972;-37
2021/10/14 09:04:50;;;;;;;;;;;24.80;18.80;;;;;;4311535;33;20005;-36
2021/10/14 09:07:17;;;;;;;;;;;24.60;18.90;;;;;;4310614;33;20509;-37
2021/10/14 09:09:43;;;;;;;;;;;24.50;19.10;;;;;;4311592;33;19983;-36
2021/10/14 09:12:11;;;;;;;;;;;24.40;19.10;;;;;;4311789;33;19972;-38
2021/10/14 09:14:57;;;;;;;;;;;24.30;19.20;;;;;;4357891;32;19974;-36
2021/10/14 09:17:44;;;;;;;;;;;24.20;19.20;;;;;;4358213;32;21268;-37
2021/10/14 09:20:25;;;;;;;;;;;24.20;19.30;;;;;;4357438;32;19984;-37
2021/10/14 09:22:53;;;;;;;;;;;24.20;19.30;;;;;;4358588;32;19970;-37
2021/10/14 09:25:40;;;;;;;;;;;24.20;19.30;;;;;;4358095;32;20516;-38
2021/10/14 09:28:25;;;;;;;;;;;24.30;19.40;;;;;;4358060;32;19962;-38
2021/10/14 09:30:57;;;;;;;;;;;24.40;19.50;;;;;;4345096;32;20431;-39
2021/10/14 09:33:38;;;;;;;;;;;24.40;19.40;;;;;;4361135;32;19985;-37
2021/10/14 09:36:18;;;;;;;;;;;24.50;19.40;;;;;;4361311;32;20046;-38
2021/10/14 09:38:52;;;;;;;;;;;24.60;19.30;;;;;;4360704;32;20453;-38
2021/10/14 09:41:23;;;;;;;;;;;24.80;19.10;;;;;;4346670;32;19971;-38
2021/10/14 09:43:52;;;;;;;;;;;24.90;19.00;;;;;;4360607;32;20044;-37
2021/10/14 09:46:39;;;;;;;;;;;25.10;18.80;;;;;;4368533;32;19969;-37
2021/10/14 09:49:13;;;;;;;;;;;25.10;18.30;;;;;;4375912;32;19970;-38
2021/10/14 09:51:40;;;;;;;;;;;25.20;18.40;;;;;;4375854;32;19970;-38
2021/10/14 09:54:07;;;;;;;;;;;25.30;18.20;;;;;;4361945;32;19984;-38
2021/10/14 09:56:33;;;;;;;;;;;25.40;18.30;;;;;;4375568;32;19978;-37
2021/10/14 09:59:01;;;;;;;;;;;25.40;18.30;;;;;;4361516;32;20038;-40
2021/10/14 10:01:32;;;;;;;;;;;25.50;18.30;;;;;;4375390;32;19973;-38
2021/10/14 10:03:58;;;;;;;;;;;25.60;18.30;;;;;;4375421;32;20434;-38
2021/10/14 10:06:29;;;;;;;;;;;25.60;18.30;;;;;;4375327;32;19958;-37
2021/10/14 10:08:57;;;;;;;;;;;25.70;18.30;;;;;;4375504;32;19957;-38
2021/10/14 10:11:24;;;;;;;;;;;25.80;18.10;;;;;;4361618;32;20552;-37
2021/10/14 10:13:52;;;;;;;;;;;25.70;18.10;;;;;;4349389;32;19968;-37
2021/10/14 10:16:23;;;;;;;;;;;25.70;17.80;;;;;;4361415;32;20051;-37
2021/10/14 10:18:54;;;;;;;;;;;25.80;17.70;;;;;;4374995;32;19957;-37
2021/10/14 10:21:32;;;;;;;;;;;25.70;17.80;;;;;;4375030;32;19989;-38
2021/10/14 10:23:59;;;;;;;;;;;25.70;17.80;;;;;;4375363;32;20511;-39
2021/10/14 10:26:37;;;;;;;;;;;25.60;17.80;;;;;;4375527;32;20418;-37
2021/10/14 10:29:12;;;;;;;;;;;25.70;17.50;;;;;;4375438;32;19980;-38
2021/10/14 10:31:55;;;;;;;;;;;25.80;17.70;;;;;;4374809;32;20050;-38
2021/10/14 10:34:45;;;;;;;;;;;25.90;17.60;;;;;;4375374;32;19966;-38
2021/10/14 10:37:30;;;;;;;;;;;25.80;17.40;;;;;;4374809;32;20058;-38
2021/10/14 10:40:01;;;;;;;;;;;25.90;17.70;;;;;;4374993;32;20049;-37
2021/10/14 10:42:36;;;;;;;;;;;26.00;17.80;;;;;;4374202;32;20425;-39
2021/10/14 10:45:29;;;;;;;;;;;26.00;17.90;;;;;;4361271;32;20055;-38
2021/10/14 10:47:56;;;;;;;;;;;26.00;17.70;;;;;;4359689;32;19982;-38
2021/10/14 10:50:29;;;;;;;;;;;26.10;17.50;;;;;;4359986;32;20006;-38
2021/10/14 10:53:08;;;;;;;;;;;26.30;17.30;;;;;;4360147;32;19982;-38
2021/10/14 10:55:38;;;;;;;;;;;26.40;17.30;;;;;;4359942;32;19985;-39
2021/10/14 10:58:07;;;;;;;;;;;26.60;17.40;;;;;;4359767;32;19975;-37
2021/10/14 11:00:33;;;;;;;;;;;26.80;17.40;;;;;;4359679;32;19961;-38
2021/10/14 11:03:20;;;;;;;;;;;26.90;17.40;;;;;;4359694;32;20001;-38
2021/10/14 11:05:53;;;;;;;;;;;27.00;17.20;;;;;;4346787;32;19971;-38
2021/10/14 11:08:31;;;;;;;;;;;27.10;17.40;;;;;;4359658;32;20036;-39
2021/10/14 11:10:59;;;;;;;;;;;27.10;17.30;;;;;;4359490;32;19973;-37
2021/10/14 11:13:27;;;;;;;;;;;27.20;17.40;;;;;;4345598;32;19962;-37
2021/10/14 11:15:54;;;;;;;;;;;27.10;17.30;;;;;;4359156;32;20579;-37
2021/10/14 11:18:21;;;;;;;;;;;27.20;17.50;;;;;;4346063;32;20067;-38
2021/10/14 11:20:58;;;;;;;;;;;27.20;17.30;;;;;;4359572;32;19955;-38
2021/10/14 11:23:29;;;;;;;;;;;27.10;17.50;;;;;;4359719;32;19962;-38
2021/10/14 11:26:20;;;;;;;;;;;27.10;17.40;;;;;;4359588;32;19970;-37
2021/10/14 11:28:52;;;;;;;;;;;26.90;17.40;;;;;;4359196;32;19958;-39
2021/10/14 11:31:37;;;;;;;;;;;26.70;17.30;;;;;;4359326;32;20063;-39
2021/10/14 11:34:14;;;;;;;;;;;26.50;17.50;;;;;;4359317;32;19966;-38
2021/10/14 11:36:49;;;;;;;;;;;26.40;17.60;;;;;;4359309;32;20359;-37
2021/10/14 11:39:16;;;;;;;;;;;26.30;17.60;;;;;;4359141;32;19965;-38
2021/10/14 11:41:42;;;;;;;;;;;26.20;17.50;;;;;;4359048;32;19973;-38
2021/10/14 11:44:09;;;;;;;;;;;26.10;17.50;;;;;;4359483;32;19982;-38
2021/10/14 11:46:37;;;;;;;;;;;26.00;17.50;;;;;;4345219;32;19985;-38
2021/10/14 11:49:05;;;;;;;;;;;25.90;17.40;;;;;;4345154;32;20067;-37
2021/10/14 11:51:31;;;;;;;;;;;25.80;17.60;;;;;;4359201;32;19986;-36
2021/10/14 11:54:01;;;;;;;;;;;25.70;17.60;;;;;;4359023;32;20067;-37
2021/10/14 11:56:29;;;;;;;;;;;25.60;18.30;;;;;;4357522;32;20434;-37
2021/10/14 11:59:03;;;;;;;;;;;25.30;17.60;;;;;;4358777;32;20087;-37
2021/10/14 12:01:29;;;;;;;;;;;25.20;17.80;;;;;;4345065;32;20403;-36
2021/10/14 12:03:58;;;;;;;;;;;25.10;17.90;;;;;;4357397;32;19965;-37
2021/10/14 12:06:24;;;;;;;;;;;24.90;18.10;;;;;;4357438;32;19973;-37
2021/10/14 12:08:50;;;;;;;;;;;24.90;18.40;;;;;;4357143;32;19966;-37
2021/10/14 12:11:20;;;;;;;;;;;24.80;18.30;;;;;;4356876;32;19969;-37
2021/10/14 12:13:59;;;;;;;;;;;24.70;18.20;;;;;;4359033;32;19970;-37
2021/10/14 12:16:27;;;;;;;;;;;24.70;18.40;;;;;;4358689;32;19989;-38
2021/10/14 12:18:53;;;;;;;;;;;24.60;18.30;;;;;;4358496;32;20456;-37
2021/10/14 12:21:35;;;;;;;;;;;24.50;18.50;;;;;;4358349;32;19978;-37
2021/10/14 12:24:15;;;;;;;;;;;24.40;18.70;;;;;;4358730;32;19970;-38
2021/10/14 12:26:42;;;;;;;;;;;24.40;18.90;;;;;;4358478;32;19980;-38
2021/10/14 12:29:18;;;;;;;;;;;24.30;19.00;;;;;;4357054;32;20082;-38
2021/10/14 12:31:44;;;;;;;;;;;24.30;18.80;;;;;;4358478;32;19977;-36
2021/10/14 12:34:10;;;;;;;;;;;24.20;18.70;;;;;;4358380;32;20052;-37
2021/10/14 12:36:46;;;;;;;;;;;24.10;18.90;;;;;;4358515;32;19969;-38
2021/10/14 12:39:22;;;;;;;;;;;24.00;19.00;;;;;;4358732;32;19970;-38
2021/10/14 12:41:52;;;;;;;;;;;24.00;19.00;;;;;;4358186;32;19967;-38
2021/10/14 12:44:22;;;;;;;;;;;24.00;18.90;;;;;;4358014;32;19970;-37
2021/10/14 12:46:58;;;;;;;;;;;24.00;19.00;;;;;;4328321;33;19982;-38
2021/10/14 12:49:31;;;;;;;;;;;23.90;19.10;;;;;;4340685;32;20482;-37
2021/10/14 12:51:57;;;;;;;;;;;23.90;19.20;;;;;;4329749;33;20441;-38
2021/10/14 12:54:25;;;;;;;;;;;23.80;19.50;;;;;;4340946;32;20474;-37
2021/10/14 12:56:56;;;;;;;;;;;23.70;19.60;;;;;;4341041;32;19971;-38
2021/10/14 12:59:22;;;;;;;;;;;23.70;19.60;;;;;;4341183;32;19966;-38
2021/10/14 13:01:49;;;;;;;;;;;23.70;19.50;;;;;;4340779;32;19968;-38
2021/10/14 13:04:18;;;;;;;;;;;23.60;19.40;;;;;;4341041;33;20026;-37
2021/10/14 13:06:45;;;;;;;;;;;23.50;19.50;;;;;;4343340;32;19982;-38
2021/10/14 13:09:11;;;;;;;;;;;23.40;19.60;;;;;;4343909;32;19978;-37
2021/10/14 13:11:38;;;;;;;;;;;23.30;19.60;;;;;;4343567;32;19986;-38
2021/10/14 13:14:10;;;;;;;;;;;23.30;19.60;;;;;;4344075;32;19983;-37
2021/10/14 13:16:37;;;;;;;;;;;23.20;19.50;;;;;;4331923;32;19971;-37
2021/10/14 13:19:07;;;;;;;;;;;23.10;19.60;;;;;;4361392;32;20426;-38
2021/10/14 13:21:33;;;;;;;;;;;23.00;19.60;;;;;;4346687;32;19994;-37
2021/10/14 13:23:59;;;;;;;;;;;23.00;19.80;;;;;;4361169;32;19988;-37
2021/10/14 13:26:26;;;;;;;;;;;22.90;19.80;;;;;;4360769;32;20396;-38
2021/10/14 13:28:52;;;;;;;;;;;22.80;19.80;;;;;;4360869;32;20001;-37
2021/10/14 13:31:19;;;;;;;;;;;22.80;19.90;;;;;;4361079;32;20044;-40
2021/10/14 13:33:46;;;;;;;;;;;22.70;19.90;;;;;;4360954;32;19994;-40
2021/10/14 13:36:16;;;;;;;;;;;22.70;19.90;;;;;;4361226;32;19973;-37
2021/10/14 13:38:45;;;;;;;;;;;22.70;20.00;;;;;;4347479;32;19994;-41
2021/10/14 13:41:14;;;;;;;;;;;22.50;20.00;;;;;;4347166;32;19966;-37
2021/10/14 13:43:48;;;;;;;;;;;22.40;20.10;;;;;;4360922;32;20044;-38
2021/10/14 13:46:14;;;;;;;;;;;22.30;20.20;;;;;;4368435;32;19981;-37
2021/10/14 13:48:41;;;;;;;;;;;22.20;20.30;;;;;;4375507;32;19970;-37
2021/10/14 13:51:07;;;;;;;;;;;22.10;20.40;;;;;;4375614;32;19969;-38
2021/10/14 13:53:33;;;;;;;;;;;22.00;20.50;;;;;;4375346;32;20355;-39
2021/10/14 13:55:59;;;;;;;;;;;21.90;20.70;;;;;;4361408;32;20426;-39
2021/10/14 13:58:26;;;;;;;;;;;21.80;21.00;;;;;;4375604;32;19965;-38
2021/10/14 14:00:52;;;;;;;;;;;21.70;21.10;;;;;;4375264;32;19970;-37
2021/10/14 14:03:19;;;;;;;;;;;21.50;21.20;;;;;;4375810;32;19989;-38
2021/10/14 14:05:49;;;;;;;;;;;21.40;21.20;;;;;;4375951;32;19988;-37
2021/10/14 14:08:15;;;;;;;;;;;21.30;21.20;;;;;;4328417;33;20419;-38
2021/10/14 14:10:42;;;;;;;;;;;21.20;21.20;;;;;;4316069;33;20054;-38
2021/10/14 14:13:09;;;;;;;;;;;21.10;21.10;;;;;;4316105;33;19994;-39
2021/10/14 14:15:37;;;;;;;;;;;21.00;21.10;;;;;;4327948;33;19983;-39
2021/10/14 14:18:05;;;;;;;;;;;20.90;21.20;;;;;;4326592;33;20432;-38
2021/10/14 14:20:32;;;;;;;;;;;20.90;21.20;;;;;;4328317;33;20038;-38